Impacts METAR Board
IDs:

KIAH - Houston/Bush Intl, TX, US

Updated at: 1200 UTC 19 Jun 2018
Potential Impact None Slight Moderate High
Time 19/00Z 19/01Z 19/02Z 19/03Z 19/04Z 19/05Z 19/06Z 19/07Z 19/08Z 19/09Z 19/10Z 19/11Z 19/12Z
Temp78 77 76 76 76 75 76 76 75 74 74 74 74
Dewpt76 76 75 76 76 75 75 76 74 74 74 73 74
Altim29.92 29.92 29.93 29.95 29.96 29.96 29.95 29.93 29.92 29.92 29.90 29.91 29.92
VIS5 8 10 10 7 2 7 3 3 7 7 7 7
CIG36 33 55 25 24 15 10 20 10 15 50 49 19
CoverOVCOVCBKNBKNBKNOVCOVCOVCOVCOVCOVCOVCOVC
FltCatMVFRVFRVFRMVFRMVFRIFRMVFRMVFRMVFRMVFRVFRVFRMVFR
WX-RA BR-RA-RA---RARA BR-RARA BRRA BR-RA-----RA
WDir12090110110110120130120130110909090
WSpd12 12 10 9 11 8 11 11 14 8 9 9 8
WGst-- -- -- -- -- -- -- -- -- -- -- -- --
Raw hourly METARs
KIAH 182353Z 12012KT 5SM -RA BR SCT012 BKN036 OVC050 26/24 A2992 RMK AO2 SLP132 P0001 60006 T02560244 10289 20244 55000
KIAH 190053Z 09012KT 8SM -RA SCT009 BKN033 OVC055 25/24 A2992 RMK AO2 SLP133 P0003 T02500244
KIAH 190153Z 11010KT 10SM -RA FEW009 SCT034 BKN055 BKN160 BKN250 24/24 A2993 RMK AO2 RAE22B45 SLP135 P0000 T02440239
KIAH 190253Z 11009KT 10SM SCT011 BKN025 BKN055 BKN150 24/24 A2995 RMK AO2 RAE0158B17E30 SLP143 P0000 60003 T02440244 53010
KIAH 190353Z 11011KT 7SM -RA SCT008 BKN024 BKN040 BKN130 24/24 A2996 RMK AO2 RAB18 SLP146 P0003 T02440244 $
KIAH 190453Z 12008KT 2SM RA BR FEW005 BKN015TCU OVC035 24/24 A2996 RMK AO2 SLP145 TCU ALQDS P0067 T02390239 $
KIAH 190553Z 13011KT 7SM -RA SCT005 BKN010TCU OVC050 24/24 A2995 RMK AO2 PK WND 13026/0536 SLP141 TCU NW-NE P0077 60150 T02440239 10256 20239 402890239 58001 $
KIAH 190653Z 12011KT 3SM RA BR SCT010TCU BKN020 OVC048 24/24 A2993 RMK AO2 RAE22B47 SLP133 TCU OHD P0008 T02440244 $
KIAH 190753Z 13014KT 3SM RA BR FEW005 BKN010 OVC030 24/23 A2992 RMK AO2 PK WND 16027/0709 SLP132 P0014 T02390233 $
KIAH 190853Z 11008KT 7SM -RA FEW005 BKN015 OVC120 23/23 A2992 RMK AO2 SLP130 BKN V SCT P0005 60027 T02330233 56011 $
KIAH 190953Z 09009KT 7SM FEW008 SCT030 OVC050 23/23 A2990 RMK AO2 RAE32 SLP124 P0000 T02330233 $
KIAH 191053Z 09009KT 7SM FEW006 SCT030 BKN049 OVC130 23/23 A2991 RMK AO2 SLP130 T02330228 $
KIAH 191153Z 09008KT 7SM -RA FEW007 BKN019 OVC050 23/23 A2992 RMK AO2 RAB51 SLP132 P0000 60027 70242 T02330233 10244 20233 53003



Page loaded:  12:37 UTC  |   05:37 AM Pacific  |   06:37 AM Mountain  |   07:37 AM Central  |   08:37 AM Eastern

 

ADVISORIES

FORECASTS

FORECASTS

OBSERVATIONS

USER TOOLS

ABOUT US